Time;durP1;ratioP1;P1;durP2;ratioP2;P2;SDS_P1;SDS_P2;PMS_P1;PMS_P2;Temp;Humidity;BMP_temperature;BMP_pressure;BME280_temperature;BME280_humidity;BME280_pressure;Samples;Min_cycle;Max_cycle;Signal;HPM_P1;HPM_P2
2023/05/12 00:01:28;;;;;;;6.55;5.68;;;10.80;99.90;;;;;;5060637;28;20021;-70
2023/05/12 00:03:54;;;;;;;5.20;4.70;;;10.80;99.90;;;;;;5080783;28;20538;-71
2023/05/12 00:06:20;;;;;;;7.63;6.82;;;10.80;99.90;;;;;;5063539;28;20503;-71
2023/05/12 00:08:46;;;;;;;8.15;6.85;;;10.80;99.90;;;;;;5069611;28;20027;-71
2023/05/12 00:11:11;;;;;;;7.60;6.90;;;10.80;99.90;;;;;;5071855;28;20090;-71
2023/05/12 00:13:37;;;;;;;7.53;6.50;;;10.80;99.90;;;;;;5071375;28;20149;-70
2023/05/12 00:16:03;;;;;;;8.25;6.57;;;10.80;99.90;;;;;;5071855;28;20028;-71
2023/05/12 00:18:29;;;;;;;7.80;6.95;;;10.80;99.90;;;;;;5052751;28;20024;-72
2023/05/12 00:20:55;;;;;;;8.90;6.95;;;10.80;99.90;;;;;;5072170;28;20059;-71
2023/05/12 00:23:21;;;;;;;7.53;6.82;;;10.70;99.90;;;;;;5070800;28;20059;-71
2023/05/12 00:25:47;;;;;;;8.80;7.97;;;10.70;99.90;;;;;;5059866;28;20029;-71
2023/05/12 00:28:12;;;;;;;8.75;6.68;;;10.60;99.90;;;;;;5071718;28;20260;-70
2023/05/12 00:30:38;;;;;;;8.07;7.00;;;10.70;99.90;;;;;;5072377;28;20028;-70
2023/05/12 00:33:04;;;;;;;7.65;6.50;;;10.70;99.90;;;;;;5070428;28;20043;-70
2023/05/12 00:35:29;;;;;;;7.45;6.63;;;10.60;99.90;;;;;;5073353;28;20367;-71
2023/05/12 00:37:55;;;;;;;8.02;6.20;;;10.60;99.90;;;;;;5070969;28;20032;-70
2023/05/12 00:40:20;;;;;;;9.93;7.65;;;10.70;99.90;;;;;;5071958;28;20496;-70
2023/05/12 00:42:46;;;;;;;7.97;6.68;;;10.70;99.90;;;;;;5070868;28;20113;-70
2023/05/12 00:45:12;;;;;;;9.82;7.88;;;10.70;99.90;;;;;;5045670;28;20029;-70
2023/05/12 00:47:38;;;;;;;8.27;7.47;;;10.80;99.90;;;;;;5065508;28;20174;-71
2023/05/12 00:50:05;;;;;;;10.45;8.13;;;11.60;99.90;;;;;;5071233;28;20031;-70
2023/05/12 00:52:30;;;;;;;9.23;8.27;;;10.90;99.90;;;;;;5079286;28;20062;-70
2023/05/12 00:54:57;;;;;;;8.95;7.47;;;10.80;99.90;;;;;;5071022;28;20097;-69
2023/05/12 00:57:26;;;;;;;9.52;8.45;;;10.80;99.90;;;;;;5069608;28;20047;-70
2023/05/12 00:59:53;;;;;;;12.55;10.10;;;10.80;99.90;;;;;;5071319;28;20020;-71
2023/05/12 01:02:18;;;;;;;9.98;8.98;;;10.80;99.90;;;;;;5070770;28;20054;-71
2023/05/12 01:04:44;;;;;;;9.93;8.93;;;10.80;99.90;;;;;;5071875;28;20325;-70
2023/05/12 01:07:23;;;;;;;12.20;9.45;;;10.80;99.90;;;;;;5073274;28;20039;-70
2023/05/12 01:09:55;;;;;;;11.10;9.93;;;10.80;99.90;;;;;;5055197;28;20472;-70
2023/05/12 01:12:22;;;;;;;11.52;9.18;;;10.80;99.90;;;;;;5070457;28;20278;-71
2023/05/12 01:14:50;;;;;;;14.10;9.52;;;10.90;99.90;;;;;;5071740;28;20052;-70
2023/05/12 01:17:20;;;;;;;10.35;9.35;;;10.80;99.90;;;;;;5068829;28;20024;-70
2023/05/12 01:20:06;;;;;;;11.50;10.13;;;10.80;99.90;;;;;;5064553;28;20051;-71
2023/05/12 01:22:33;;;;;;;10.93;9.82;;;10.80;99.90;;;;;;5070949;28;20038;-71
2023/05/12 01:25:06;;;;;;;12.07;10.75;;;10.80;99.90;;;;;;5073499;28;20055;-70
2023/05/12 01:27:33;;;;;;;12.98;10.82;;;10.80;99.90;;;;;;5074297;28;20358;-70
2023/05/12 01:30:00;;;;;;;11.93;10.73;;;10.80;99.90;;;;;;5074119;28;20028;-70
2023/05/12 01:32:26;;;;;;;12.13;10.50;;;10.80;99.90;;;;;;5070727;28;20060;-71
2023/05/12 01:34:52;;;;;;;13.50;10.60;;;10.80;99.90;;;;;;5058627;28;20083;-71
2023/05/12 01:37:18;;;;;;;11.77;10.15;;;10.70;99.90;;;;;;5070095;28;20033;-71
2023/05/12 01:39:43;;;;;;;11.30;10.00;;;10.70;99.90;;;;;;5080287;28;20032;-71
2023/05/12 01:42:09;;;;;;;12.18;10.68;;;10.70;99.90;;;;;;5070845;28;20381;-71
2023/05/12 01:44:35;;;;;;;13.00;10.43;;;10.60;99.90;;;;;;5070601;28;20123;-71
2023/05/12 01:47:01;;;;;;;12.93;10.85;;;10.60;99.90;;;;;;5070773;28;20112;-70
2023/05/12 01:49:27;;;;;;;14.27;10.10;;;10.60;99.90;;;;;;5052045;28;20049;-71
2023/05/12 01:51:52;;;;;;;12.40;10.73;;;10.60;99.90;;;;;;5063064;28;20024;-71
2023/05/12 01:54:18;;;;;;;13.63;11.10;;;10.60;99.90;;;;;;5069898;28;20451;-70
2023/05/12 01:56:44;;;;;;;14.35;11.70;;;10.70;99.90;;;;;;5077120;28;20027;-70
2023/05/12 01:59:09;;;;;;;14.00;11.50;;;10.70;99.90;;;;;;5069558;28;20055;-69
2023/05/12 02:01:35;;;;;;;13.30;10.88;;;10.80;99.90;;;;;;5070763;28;20166;-69
2023/05/12 02:04:02;;;;;;;11.90;10.63;;;10.80;99.90;;;;;;5072521;28;20032;-71
2023/05/12 02:06:28;;;;;;;13.18;11.27;;;10.80;99.90;;;;;;5075033;28;20024;-70
2023/05/12 02:08:54;;;;;;;12.55;10.98;;;10.80;99.90;;;;;;5077352;28;20028;-70
2023/05/12 02:11:20;;;;;;;12.02;10.57;;;10.70;99.90;;;;;;5073947;28;20075;-70
2023/05/12 02:13:46;;;;;;;11.35;10.15;;;10.70;99.90;;;;;;5085718;28;20399;-70
2023/05/12 02:16:12;;;;;;;13.02;11.20;;;10.60;99.90;;;;;;5066110;28;20100;-70
2023/05/12 02:18:38;;;;;;;16.17;11.02;;;10.60;99.90;;;;;;5057582;28;20036;-70
2023/05/12 02:21:03;;;;;;;13.57;12.18;;;10.60;99.90;;;;;;5074163;28;20026;-70
2023/05/12 02:23:29;;;;;;;13.85;12.43;;;10.60;99.90;;;;;;5074132;28;20032;-70
2023/05/12 02:25:55;;;;;;;15.75;12.23;;;10.60;99.90;;;;;;5073181;28;20529;-70
2023/05/12 02:28:20;;;;;;;14.52;13.02;;;10.60;99.90;;;;;;5072640;28;20025;-70
2023/05/12 02:30:47;;;;;;;13.90;12.50;;;10.50;99.90;;;;;;5075902;28;20468;-71
2023/05/12 02:33:14;;;;;;;14.35;12.85;;;10.50;99.90;;;;;;5072962;28;20060;-70
2023/05/12 02:35:39;;;;;;;15.13;13.52;;;10.50;99.90;;;;;;5074065;28;20033;-70
2023/05/12 02:38:05;;;;;;;16.13;13.95;;;10.50;99.90;;;;;;5059232;28;20124;-70
2023/05/12 02:40:31;;;;;;;14.27;12.77;;;10.50;99.90;;;;;;5074395;28;20025;-70
2023/05/12 02:42:56;;;;;;;13.93;12.50;;;10.50;99.90;;;;;;5073505;28;20064;-70
2023/05/12 02:45:22;;;;;;;13.90;12.40;;;10.50;99.90;;;;;;5075776;28;20441;-70
2023/05/12 02:47:47;;;;;;;16.27;12.48;;;10.50;99.90;;;;;;5077591;28;20053;-71
2023/05/12 02:50:13;;;;;;;13.57;11.13;;;10.60;99.90;;;;;;5055656;28;20108;-70
2023/05/12 02:52:39;;;;;;;15.07;13.38;;;10.60;99.90;;;;;;5073512;28;20382;-70
2023/05/12 02:55:05;;;;;;;17.77;13.82;;;10.60;99.90;;;;;;5073379;28;20032;-69
2023/05/12 02:57:32;;;;;;;15.25;13.23;;;10.60;99.90;;;;;;5070828;28;20084;-70
2023/05/12 02:59:59;;;;;;;15.05;12.65;;;10.60;99.90;;;;;;5072896;28;20025;-70
2023/05/12 03:02:24;;;;;;;13.90;11.65;;;10.60;99.90;;;;;;5082651;28;20036;-71
2023/05/12 03:04:50;;;;;;;15.55;12.43;;;10.60;99.90;;;;;;5074047;28;20036;-70
2023/05/12 03:07:16;;;;;;;15.10;12.40;;;10.60;99.90;;;;;;5072537;28;20477;-71
2023/05/12 03:09:41;;;;;;;14.82;12.77;;;10.60;99.90;;;;;;5075903;28;20020;-72
2023/05/12 03:12:07;;;;;;;18.60;12.52;;;10.50;99.90;;;;;;5072709;28;20029;-70
2023/05/12 03:14:33;;;;;;;14.65;13.13;;;10.50;99.90;;;;;;5073058;28;20029;-72
2023/05/12 03:16:58;;;;;;;17.52;12.48;;;10.60;99.90;;;;;;5072716;28;20028;-70
2023/05/12 03:19:24;;;;;;;14.57;13.00;;;10.60;99.90;;;;;;5077770;28;20151;-70
2023/05/12 03:21:50;;;;;;;16.98;15.18;;;10.60;99.90;;;;;;5073651;28;20381;-70
2023/05/12 03:24:15;;;;;;;14.20;12.70;;;10.50;99.90;;;;;;5072669;28;20028;-71
2023/05/12 03:26:41;;;;;;;17.55;15.52;;;10.50;99.90;;;;;;5073005;28;20044;-70
2023/05/12 03:29:07;;;;;;;17.42;14.88;;;10.50;99.90;;;;;;5083016;28;20021;-70
2023/05/12 03:31:33;;;;;;;15.90;13.57;;;10.50;99.90;;;;;;5072623;28;20107;-70
2023/05/12 03:33:58;;;;;;;15.65;13.27;;;10.60;99.90;;;;;;5072039;28;20104;-70
2023/05/12 03:36:24;;;;;;;14.77;12.18;;;10.60;99.90;;;;;;5085579;28;20032;-70
2023/05/12 03:38:49;;;;;;;14.32;12.65;;;10.60;99.90;;;;;;5073034;28;20373;-70
2023/05/12 03:41:16;;;;;;;16.25;13.07;;;10.60;99.90;;;;;;5071846;28;20047;-71
2023/05/12 03:43:41;;;;;;;16.02;13.95;;;10.50;99.90;;;;;;5078134;28;20036;-70
2023/05/12 03:46:07;;;;;;;15.05;13.45;;;10.50;99.90;;;;;;5079688;28;20534;-71
2023/05/12 03:48:33;;;;;;;14.90;12.35;;;10.50;99.90;;;;;;5072192;28;20112;-72
2023/05/12 03:50:58;;;;;;;18.75;15.55;;;10.50;99.90;;;;;;5064796;28;20031;-70
2023/05/12 03:53:24;;;;;;;16.73;14.73;;;10.50;99.90;;;;;;5070337;28;20067;-70
2023/05/12 03:55:50;;;;;;;18.10;15.48;;;10.50;99.90;;;;;;5069330;28;20036;-71
2023/05/12 03:58:15;;;;;;;16.77;14.43;;;10.50;99.90;;;;;;5064177;28;20035;-71
2023/05/12 04:00:41;;;;;;;21.48;16.23;;;10.50;99.90;;;;;;5068954;28;20027;-71
2023/05/12 04:03:07;;;;;;;19.35;15.75;;;10.50;99.90;;;;;;5066773;28;20130;-70
2023/05/12 04:05:32;;;;;;;17.95;15.15;;;10.50;99.90;;;;;;5070074;28;20021;-70
2023/05/12 04:07:58;;;;;;;19.55;16.30;;;10.50;99.90;;;;;;5069223;28;20446;-69
2023/05/12 04:10:23;;;;;;;18.50;15.15;;;10.50;99.90;;;;;;5059334;28;20494;-69
2023/05/12 04:12:49;;;;;;;20.05;16.75;;;10.50;99.90;;;;;;5068181;28;20037;-69
2023/05/12 04:15:15;;;;;;;20.70;16.60;;;10.50;99.90;;;;;;5064423;28;20561;-70
2023/05/12 04:17:40;;;;;;;22.30;16.38;;;10.50;99.90;;;;;;5065718;28;20124;-69
2023/05/12 04:20:07;;;;;;;20.77;17.15;;;10.50;99.90;;;;;;5068822;28;20020;-70
2023/05/12 04:22:32;;;;;;;19.10;16.10;;;10.40;99.90;;;;;;5068868;28;20029;-70
2023/05/12 04:24:58;;;;;;;21.85;17.42;;;10.40;99.90;;;;;;5062412;28;20035;-70
2023/05/12 04:27:24;;;;;;;22.33;17.67;;;10.50;99.90;;;;;;5063366;28;20563;-69
2023/05/12 04:29:49;;;;;;;22.13;16.98;;;10.40;99.90;;;;;;5068117;28;20067;-69
2023/05/12 04:32:15;;;;;;;22.40;17.52;;;10.50;99.90;;;;;;5068292;28;20430;-70
2023/05/12 04:34:41;;;;;;;19.17;16.65;;;10.50;99.90;;;;;;5068041;28;20036;-69
2023/05/12 04:37:07;;;;;;;23.75;17.65;;;10.50;99.90;;;;;;5067784;28;20029;-71
2023/05/12 04:39:32;;;;;;;21.05;16.83;;;10.50;99.90;;;;;;5064426;28;20028;-69
2023/05/12 04:42:00;;;;;;;22.50;17.55;;;10.50;99.90;;;;;;5066913;28;20040;-69
2023/05/12 04:44:26;;;;;;;20.92;17.48;;;10.50;99.90;;;;;;5068273;28;20548;-69
2023/05/12 04:46:55;;;;;;;20.38;16.15;;;10.50;99.90;;;;;;5069581;28;20122;-69
2023/05/12 04:49:20;;;;;;;21.05;17.38;;;10.50;99.90;;;;;;5077820;28;20032;-70
2023/05/12 04:51:46;;;;;;;20.92;16.67;;;10.50;99.90;;;;;;5079918;28;20028;-69
2023/05/12 04:54:12;;;;;;;20.77;17.50;;;10.50;99.90;;;;;;5081921;28;20032;-69
2023/05/12 04:56:37;;;;;;;19.60;16.45;;;10.60;99.90;;;;;;5076150;28;20469;-72
2023/05/12 04:59:03;;;;;;;19.90;17.30;;;10.60;99.90;;;;;;5080697;28;20036;-70
2023/05/12 05:01:28;;;;;;;23.38;17.58;;;10.60;99.90;;;;;;5080043;28;20024;-70
2023/05/12 05:03:54;;;;;;;22.75;18.08;;;10.60;99.90;;;;;;5078839;28;20377;-69
2023/05/12 05:06:19;;;;;;;20.63;16.88;;;10.80;99.90;;;;;;5075762;28;20024;-73
2023/05/12 05:08:45;;;;;;;23.63;18.10;;;10.80;99.90;;;;;;5080846;28;20062;-73
2023/05/12 05:11:11;;;;;;;23.52;17.63;;;10.80;99.90;;;;;;5079583;28;20023;-74
2023/05/12 05:13:36;;;;;;;21.17;17.02;;;10.80;99.90;;;;;;5080425;28;20030;-73
2023/05/12 05:16:02;;;;;;;23.65;18.48;;;10.80;99.90;;;;;;5078274;28;20028;-83
2023/05/12 05:18:28;;;;;;;21.83;17.15;;;10.80;99.90;;;;;;5075230;28;20461;-81
2023/05/12 05:20:54;;;;;;;19.88;16.60;;;10.80;99.90;;;;;;5080585;28;20055;-71
2023/05/12 05:23:20;;;;;;;19.23;14.95;;;10.80;99.90;;;;;;5077733;28;20465;-75
2023/05/12 05:25:45;;;;;;;18.58;16.58;;;10.80;99.90;;;;;;5079236;28;20028;-76
2023/05/12 05:28:11;;;;;;;18.77;15.80;;;10.90;99.90;;;;;;5077069;28;20026;-78
2023/05/12 05:30:37;;;;;;;20.13;16.10;;;10.90;99.90;;;;;;5073989;28;20501;-74
2023/05/12 05:33:02;;;;;;;19.67;16.90;;;11.00;99.90;;;;;;5079940;28;20052;-78
2023/05/12 05:35:30;;;;;;;20.48;15.80;;;11.00;99.90;;;;;;5075394;28;20041;-75
2023/05/12 05:37:56;;;;;;;15.90;14.20;;;11.10;99.90;;;;;;5075939;28;20032;-72
2023/05/12 05:40:22;;;;;;;18.10;15.25;;;11.10;99.90;;;;;;5077327;28;20095;-75
2023/05/12 05:42:47;;;;;;;17.95;16.05;;;11.20;99.90;;;;;;5078456;28;20374;-77
2023/05/12 05:45:13;;;;;;;16.45;14.52;;;11.20;99.90;;;;;;5074662;28;20027;-76
2023/05/12 05:47:39;;;;;;;20.48;15.25;;;11.20;99.90;;;;;;5061947;28;20432;-74
2023/05/12 05:50:05;;;;;;;20.48;15.80;;;11.30;99.90;;;;;;5081533;28;20026;-76
2023/05/12 05:52:31;;;;;;;17.45;13.98;;;11.30;99.90;;;;;;5078061;28;20826;-76
2023/05/12 05:54:56;;;;;;;16.05;14.25;;;11.40;99.90;;;;;;5079825;28;20032;-72
2023/05/12 05:57:22;;;;;;;17.42;15.45;;;11.40;99.90;;;;;;5077339;28;20039;-75
2023/05/12 05:59:48;;;;;;;16.02;13.45;;;11.40;99.90;;;;;;5079326;28;20078;-77
2023/05/12 06:02:14;;;;;;;19.38;15.35;;;11.40;99.90;;;;;;5074513;28;20024;-76
2023/05/12 06:04:39;;;;;;;16.23;14.38;;;11.50;99.90;;;;;;5078253;28;20120;-76
2023/05/12 06:07:05;;;;;;;16.60;14.32;;;11.60;99.90;;;;;;5077441;28;20035;-77
2023/05/12 06:09:31;;;;;;;16.55;14.82;;;11.60;99.90;;;;;;5062144;28;20049;-75
2023/05/12 06:11:56;;;;;;;17.77;14.27;;;11.70;99.90;;;;;;5078988;28;20032;-72
2023/05/12 06:14:22;;;;;;;14.93;13.30;;;11.70;99.90;;;;;;5074826;28;20040;-77
2023/05/12 06:16:48;;;;;;;14.95;13.25;;;11.70;99.90;;;;;;5070940;28;20032;-77
2023/05/12 06:19:14;;;;;;;13.63;12.20;;;11.80;99.90;;;;;;5059629;28;20052;-78
2023/05/12 06:21:40;;;;;;;14.60;11.52;;;11.70;99.90;;;;;;5071820;28;20037;-77
2023/05/12 06:24:06;;;;;;;13.95;12.38;;;11.80;99.90;;;;;;5075370;28;20042;-75
2023/05/12 06:26:31;;;;;;;13.43;11.07;;;11.80;99.90;;;;;;5079164;28;20044;-75
2023/05/12 06:28:57;;;;;;;14.70;13.20;;;11.90;99.90;;;;;;5073879;28;20039;-71
2023/05/12 06:31:23;;;;;;;13.07;11.35;;;11.90;99.90;;;;;;5076720;28;20036;-75
2023/05/12 06:33:48;;;;;;;14.43;12.93;;;12.00;99.90;;;;;;5079235;28;20032;-75
2023/05/12 06:36:14;;;;;;;14.73;12.95;;;12.10;99.90;;;;;;5078519;28;20426;-75
2023/05/12 06:38:40;;;;;;;13.48;12.02;;;12.20;99.90;;;;;;5060253;28;20535;-75
2023/05/12 06:41:05;;;;;;;16.02;12.35;;;12.30;99.90;;;;;;5077326;28;20036;-74
2023/05/12 06:43:31;;;;;;;14.63;11.55;;;12.30;99.90;;;;;;5082316;28;20487;-75
2023/05/12 06:45:57;;;;;;;15.30;12.65;;;12.30;99.90;;;;;;5066492;28;20082;-71
2023/05/12 06:48:23;;;;;;;12.60;11.18;;;12.40;99.90;;;;;;5076904;28;20508;-77
2023/05/12 06:50:48;;;;;;;15.13;12.02;;;12.40;99.90;;;;;;5080453;28;20023;-78
2023/05/12 06:53:14;;;;;;;14.30;11.88;;;12.50;99.90;;;;;;5078694;28;20028;-77
2023/05/12 06:55:42;;;;;;;13.80;11.30;;;12.70;99.90;;;;;;5084050;28;20032;-77
2023/05/12 06:58:07;;;;;;;13.57;11.50;;;12.70;99.90;;;;;;5082056;28;20024;-77
2023/05/12 07:00:33;;;;;;;14.27;11.93;;;12.80;99.90;;;;;;5083612;28;20016;-75
2023/05/12 07:02:58;;;;;;;13.13;11.70;;;12.80;99.90;;;;;;5080743;28;20032;-71
2023/05/12 07:05:24;;;;;;;13.25;10.85;;;13.00;99.90;;;;;;5081538;28;20020;-76
2023/05/12 07:07:50;;;;;;;11.00;9.90;;;13.00;99.90;;;;;;5081131;28;20153;-77
2023/05/12 07:10:15;;;;;;;13.45;12.05;;;13.10;99.90;;;;;;5080874;28;20021;-74
2023/05/12 07:12:41;;;;;;;11.73;10.55;;;13.10;99.90;;;;;;5062896;28;20155;-76
2023/05/12 07:15:07;;;;;;;11.40;10.18;;;13.30;99.90;;;;;;5082355;28;20082;-78
2023/05/12 07:17:32;;;;;;;12.20;9.88;;;13.30;99.90;;;;;;5071182;28;20036;-77
2023/05/12 07:19:58;;;;;;;11.60;10.23;;;13.50;99.90;;;;;;5073553;28;20029;-72
2023/05/12 07:22:24;;;;;;;11.02;9.77;;;13.50;99.90;;;;;;5064775;28;20072;-78
2023/05/12 07:24:50;;;;;;;10.65;9.55;;;13.60;99.90;;;;;;5081110;28;20020;-76
2023/05/12 07:27:16;;;;;;;12.45;9.02;;;13.60;99.90;;;;;;5072668;28;20024;-75
2023/05/12 07:29:42;;;;;;;9.98;8.07;;;13.70;99.90;;;;;;5077926;28;20032;-76
2023/05/12 07:32:07;;;;;;;11.18;8.60;;;13.80;99.90;;;;;;5075997;28;20028;-78
2023/05/12 07:34:33;;;;;;;10.13;6.72;;;14.00;99.90;;;;;;5072526;28;20062;-77
2023/05/12 07:37:01;;;;;;;7.72;6.90;;;14.10;99.90;;;;;;5061200;28;20080;-70
2023/05/12 07:39:27;;;;;;;11.32;8.05;;;14.30;99.90;;;;;;5071980;28;20214;-83
2023/05/12 07:41:54;;;;;;;13.48;7.63;;;14.50;99.90;;;;;;5042736;28;20033;-77
2023/05/12 07:44:19;;;;;;;7.55;6.43;;;14.60;99.90;;;;;;5071975;28;20560;-76
2023/05/12 07:46:45;;;;;;;6.95;6.10;;;14.70;99.90;;;;;;5074627;28;20099;-78
2023/05/12 07:49:11;;;;;;;6.60;5.75;;;14.80;99.90;;;;;;5071199;28;20124;-77
2023/05/12 07:51:36;;;;;;;5.60;4.90;;;14.90;99.90;;;;;;5073441;28;20028;-80
2023/05/12 07:54:03;;;;;;;7.28;5.57;;;14.90;99.90;;;;;;5072005;28;20086;-77
2023/05/12 07:56:29;;;;;;;6.35;5.70;;;15.00;99.90;;;;;;5072434;28;20035;-74
2023/05/12 07:58:55;;;;;;;7.35;5.68;;;15.00;99.90;;;;;;5069448;28;20028;-74
2023/05/12 08:01:20;;;;;;;6.18;5.53;;;15.20;99.90;;;;;;5064487;28;20020;-74
2023/05/12 08:03:46;;;;;;;7.50;5.90;;;15.30;99.90;;;;;;5072064;28;20036;-76
2023/05/12 08:06:12;;;;;;;7.25;5.88;;;15.30;99.90;;;;;;5071528;28;20033;-74
2023/05/12 08:08:37;;;;;;;7.70;6.30;;;15.40;99.90;;;;;;5074257;28;20100;-76
2023/05/12 08:11:03;;;;;;;8.10;5.32;;;15.50;99.90;;;;;;5073722;28;20111;-73
2023/05/12 08:13:29;;;;;;;6.57;5.10;;;15.60;99.90;;;;;;5071788;28;20427;-74
2023/05/12 08:15:54;;;;;;;6.20;5.45;;;15.80;99.90;;;;;;5054595;28;20551;-75
2023/05/12 08:18:20;;;;;;;4.68;4.10;;;15.70;99.90;;;;;;5060767;28;20642;-75
2023/05/12 08:20:48;;;;;;;5.35;4.50;;;15.80;99.90;;;;;;5066694;28;20058;-73
2023/05/12 08:23:16;;;;;;;5.88;5.13;;;16.00;99.90;;;;;;5048039;28;20051;-75
2023/05/12 08:25:43;;;;;;;6.65;5.00;;;16.00;99.90;;;;;;5067023;28;20047;-74
2023/05/12 08:28:09;;;;;;;4.57;3.95;;;16.00;99.90;;;;;;5067367;28;20437;-74
2023/05/12 08:30:35;;;;;;;6.10;4.13;;;16.10;99.90;;;;;;5072049;28;20040;-75
2023/05/12 08:33:02;;;;;;;5.47;4.72;;;16.10;99.90;;;;;;5071556;28;20032;-72
2023/05/12 08:35:28;;;;;;;6.03;4.32;;;16.10;99.90;;;;;;5069514;28;20020;-75
2023/05/12 08:37:55;;;;;;;5.00;4.50;;;16.10;99.90;;;;;;5065786;28;20104;-74
2023/05/12 08:40:22;;;;;;;4.10;3.70;;;16.10;99.90;;;;;;5070703;28;20764;-75
2023/05/12 08:43:17;;;;;;;4.60;4.20;;;16.20;99.90;;;;;;5071766;28;20027;-75
2023/05/12 08:45:44;;;;;;;5.82;5.20;;;16.40;99.90;;;;;;5072243;28;20027;-76
2023/05/12 08:48:12;;;;;;;4.82;4.28;;;16.40;99.90;;;;;;5069973;28;20041;-76
2023/05/12 08:50:39;;;;;;;4.93;4.25;;;16.40;99.90;;;;;;5071827;28;20369;-75
2023/05/12 08:53:09;;;;;;;4.40;3.72;;;16.40;99.90;;;;;;5069633;28;20420;-72
2023/05/12 08:55:35;;;;;;;7.55;3.97;;;16.30;99.90;;;;;;5071871;28;20040;-76
2023/05/12 08:58:02;;;;;;;7.03;3.80;;;16.30;99.90;;;;;;5071133;28;20484;-76
2023/05/12 09:00:29;;;;;;;4.82;3.75;;;16.40;99.90;;;;;;5071300;28;20060;-77
2023/05/12 09:02:57;;;;;;;6.15;4.63;;;16.60;99.90;;;;;;5071148;28;20036;-77
2023/05/12 09:05:23;;;;;;;4.28;3.80;;;16.70;99.90;;;;;;5071094;28;20604;-76
2023/05/12 09:07:49;;;;;;;4.20;3.88;;;16.70;99.90;;;;;;5070926;28;20039;-75
2023/05/12 09:10:17;;;;;;;4.30;3.60;;;16.80;99.90;;;;;;5072776;28;20028;-74
2023/05/12 09:12:46;;;;;;;4.10;3.70;;;16.90;99.90;;;;;;5076680;28;20115;-76
2023/05/12 09:15:18;;;;;;;12.93;3.63;;;17.00;99.90;;;;;;5071371;28;20538;-76
2023/05/12 09:17:44;;;;;;;6.75;4.18;;;17.00;99.90;;;;;;5072251;28;20024;-75
2023/05/12 09:20:11;;;;;;;7.78;4.50;;;17.00;99.90;;;;;;5074632;28;20051;-75
2023/05/12 09:22:38;;;;;;;5.95;3.53;;;16.90;99.90;;;;;;5052738;28;20020;-76
2023/05/12 09:25:17;;;;;;;3.65;3.30;;;16.80;99.90;;;;;;5070093;28;20035;-71
2023/05/12 09:27:45;;;;;;;6.07;5.47;;;16.80;99.90;;;;;;5071004;28;20021;-76
2023/05/12 09:30:11;;;;;;;6.28;4.03;;;16.70;99.90;;;;;;5070508;28;20273;-76
2023/05/12 09:32:37;;;;;;;5.78;4.47;;;16.50;99.90;;;;;;5070621;28;20028;-75
2023/05/12 09:35:09;;;;;;;9.63;4.43;;;16.40;99.90;;;;;;5062304;28;20397;-77
2023/05/12 09:37:35;;;;;;;3.50;3.13;;;16.40;99.90;;;;;;5070588;28;20136;-78
2023/05/12 09:40:03;;;;;;;6.07;5.53;;;16.50;99.90;;;;;;5071346;28;20203;-77
2023/05/12 09:42:30;;;;;;;5.82;5.10;;;16.50;99.90;;;;;;5065617;28;20040;-76
2023/05/12 09:45:00;;;;;;;5.35;4.85;;;16.40;99.90;;;;;;5071328;28;20040;-77
2023/05/12 09:47:28;;;;;;;5.60;5.10;;;16.40;99.90;;;;;;5069596;28;20545;-74
2023/05/12 09:49:56;;;;;;;5.00;4.57;;;16.60;99.90;;;;;;5071114;28;20453;-76
2023/05/12 09:52:22;;;;;;;13.52;5.30;;;16.80;99.90;;;;;;5069638;28;20021;-76
2023/05/12 09:54:47;;;;;;;7.40;5.13;;;17.20;99.90;;;;;;5071094;28;20029;-76
2023/05/12 09:57:15;;;;;;;4.18;3.88;;;17.40;99.90;;;;;;5069643;28;20518;-76
2023/05/12 09:59:43;;;;;;;4.47;4.07;;;17.50;99.90;;;;;;5074205;28;20024;-78
2023/05/12 10:02:10;;;;;;;7.57;3.83;;;17.60;99.90;;;;;;5052925;28;20362;-76
2023/05/12 10:04:51;;;;;;;4.78;3.40;;;17.50;99.90;;;;;;5070717;28;20479;-75
2023/05/12 10:07:21;;;;;;;4.20;3.60;;;17.40;99.90;;;;;;5069674;28;20082;-75
2023/05/12 10:09:47;;;;;;;4.30;3.72;;;17.10;99.90;;;;;;5074629;28;20036;-76
2023/05/12 10:12:13;;;;;;;3.70;3.15;;;16.90;99.90;;;;;;5069529;28;20025;-75
2023/05/12 10:14:39;;;;;;;3.90;3.50;;;16.60;99.90;;;;;;5066568;28;20058;-76
2023/05/12 10:17:06;;;;;;;3.30;3.00;;;16.50;99.90;;;;;;5065828;28;20035;-73
2023/05/12 10:19:33;;;;;;;3.30;3.00;;;16.40;99.90;;;;;;5070635;28;20029;-77
2023/05/12 10:22:00;;;;;;;3.10;2.90;;;16.40;99.90;;;;;;5070924;28;20109;-77
2023/05/12 10:24:26;;;;;;;3.35;3.05;;;16.50;99.90;;;;;;5070810;28;20039;-77
2023/05/12 10:26:55;;;;;;;4.15;2.92;;;16.50;99.90;;;;;;5075513;28;20024;-77
2023/05/12 10:29:28;;;;;;;3.25;2.90;;;16.60;99.90;;;;;;5073502;28;20515;-76
2023/05/12 10:31:55;;;;;;;3.50;2.88;;;17.00;99.90;;;;;;5074747;28;20033;-78
2023/05/12 10:34:20;;;;;;;3.42;2.90;;;17.30;99.90;;;;;;5071629;28;20500;-76
2023/05/12 10:36:48;;;;;;;5.25;3.05;;;17.90;99.90;;;;;;5056689;28;20024;-76
2023/05/12 10:39:14;;;;;;;2.60;2.40;;;18.20;99.90;;;;;;5073170;28;20054;-77
2023/05/12 10:41:41;;;;;;;3.75;3.00;;;18.20;99.90;;;;;;5074003;28;20067;-76
2023/05/12 10:44:09;;;;;;;5.10;3.33;;;18.30;99.90;;;;;;5072983;28;20060;-72
2023/05/12 10:46:34;;;;;;;3.50;3.20;;;18.10;99.90;;;;;;5074483;28;20033;-77
2023/05/12 10:49:08;;;;;;;3.17;2.88;;;17.90;99.90;;;;;;5073441;28;20105;-77
2023/05/12 10:51:58;;;;;;;7.78;4.20;;;17.60;99.90;;;;;;5069389;28;20021;-77
2023/05/12 10:54:24;;;;;;;4.18;3.72;;;17.30;99.90;;;;;;5072589;28;20479;-78
2023/05/12 10:56:51;;;;;;;5.10;4.28;;;17.10;99.90;;;;;;5074585;28;20036;-77
2023/05/12 10:59:17;;;;;;;5.13;3.97;;;16.90;99.90;;;;;;5073008;28;20021;-76
2023/05/12 11:01:57;;;;;;;9.05;4.20;;;16.60;99.90;;;;;;5074582;28;20025;-77
2023/05/12 11:04:46;;;;;;;3.92;2.92;;;16.30;99.90;;;;;;5073211;28;20063;-77
2023/05/12 11:07:13;;;;;;;4.43;3.33;;;16.10;99.90;;;;;;5073426;28;20099;-76
2023/05/12 11:09:43;;;;;;;3.83;2.80;;;15.70;99.90;;;;;;5078838;28;20020;-77
2023/05/12 11:12:10;;;;;;;5.65;3.47;;;15.60;99.90;;;;;;5073657;28;20025;-72
2023/05/12 11:14:37;;;;;;;6.93;3.60;;;15.50;99.90;;;;;;5054434;28;20384;-76
2023/05/12 11:17:03;;;;;;;3.55;3.00;;;15.50;99.90;;;;;;5074317;28;20028;-78
2023/05/12 11:19:29;;;;;;;4.32;2.65;;;15.40;99.90;;;;;;5071528;28;20017;-76
2023/05/12 11:21:55;;;;;;;3.42;2.88;;;15.10;99.90;;;;;;5073536;28;20024;-77
2023/05/12 11:24:22;;;;;;;4.95;3.30;;;14.90;99.90;;;;;;5067521;28;20033;-76
2023/05/12 11:26:50;;;;;;;4.25;3.85;;;14.70;99.90;;;;;;5074451;28;20107;-77
2023/05/12 11:29:18;;;;;;;3.72;3.25;;;14.40;99.90;;;;;;5072223;28;20446;-79
2023/05/12 11:31:47;;;;;;;5.07;3.17;;;14.10;99.90;;;;;;5063338;28;20029;-79
2023/05/12 11:34:13;;;;;;;3.97;3.03;;;13.80;99.90;;;;;;5080013;28;20032;-78
2023/05/12 11:36:43;;;;;;;5.07;4.57;;;13.70;99.90;;;;;;5073116;28;20338;-78
2023/05/12 11:39:21;;;;;;;4.13;3.83;;;13.60;99.90;;;;;;5071923;28;20078;-79
2023/05/12 11:41:48;;;;;;;5.57;4.35;;;13.60;99.90;;;;;;5072121;28;20107;-78
2023/05/12 11:44:19;;;;;;;4.68;4.25;;;13.60;99.90;;;;;;5071592;28;20032;-77
2023/05/12 11:46:57;;;;;;;5.97;4.20;;;13.60;99.90;;;;;;5073338;28;20099;-79
2023/05/12 11:49:24;;;;;;;4.68;3.80;;;13.50;99.90;;;;;;5071354;28;20045;-78
2023/05/12 11:51:58;;;;;;;4.18;3.78;;;13.40;99.90;;;;;;5073548;28;20048;-78
2023/05/12 11:54:24;;;;;;;3.70;3.40;;;13.40;99.90;;;;;;5071857;28;20039;-79
2023/05/12 11:56:51;;;;;;;4.10;3.53;;;13.50;99.90;;;;;;5073301;28;20068;-79
2023/05/12 11:59:32;;;;;;;3.67;2.70;;;13.50;99.90;;;;;;5048615;28;20520;-79
2023/05/12 12:02:00;;;;;;;4.47;3.03;;;13.50;99.90;;;;;;5072710;28;20473;-78
2023/05/12 12:04:36;;;;;;;3.08;2.80;;;13.60;99.90;;;;;;5071216;28;20241;-79
2023/05/12 12:07:06;;;;;;;6.45;3.58;;;13.80;99.90;;;;;;5054986;28;20064;-79
2023/05/12 12:09:40;;;;;;;3.10;2.80;;;14.00;99.90;;;;;;5075520;28;20013;-78
2023/05/12 12:12:07;;;;;;;3.17;2.88;;;14.20;99.90;;;;;;5071967;28;20111;-73
2023/05/12 12:14:34;;;;;;;6.95;3.22;;;14.30;99.90;;;;;;5063166;28;20040;-78
2023/05/12 12:17:00;;;;;;;4.60;3.03;;;14.50;99.90;;;;;;5068010;28;20465;-78
2023/05/12 12:19:27;;;;;;;2.75;2.33;;;14.50;99.90;;;;;;5071011;28;20031;-77
2023/05/12 12:21:53;;;;;;;4.18;3.70;;;14.70;99.90;;;;;;5072566;28;20024;-78
2023/05/12 12:24:19;;;;;;;3.30;3.00;;;15.00;99.90;;;;;;5070508;28;20037;-78
2023/05/12 12:26:45;;;;;;;3.17;2.85;;;15.40;99.90;;;;;;5074365;28;20069;-77
2023/05/12 12:29:10;;;;;;;3.10;2.80;;;15.70;99.90;;;;;;5071479;28;20024;-78
2023/05/12 12:31:36;;;;;;;3.42;3.00;;;16.00;99.90;;;;;;5072051;28;20027;-78
2023/05/12 12:34:03;;;;;;;3.63;3.15;;;16.50;99.90;;;;;;5067019;28;20024;-78